Time;durP1;ratioP1;P1;durP2;ratioP2;P2;SDS_P1;SDS_P2;PMS_P1;PMS_P2;Temp;Humidity;BMP_temperature;BMP_pressure;BME280_temperature;BME280_humidity;BME280_pressure;Samples;Min_cycle;Max_cycle;Signal;HPM_P1;HPM_P2
2023/01/24 00:00:16;;;;;;;;;;;;;;;25.01;37.71;94978.91;4952895;28;9179;-67
2023/01/24 00:02:42;;;;;;;;;;;;;;;25.01;37.00;94978.91;4938184;28;7520;-67
2023/01/24 00:05:08;;;;;;;;;;;;;;;25.02;37.27;94972.19;4947692;28;7298;-67
2023/01/24 00:07:34;;;;;;;;;;;;;;;25.01;37.61;94973.41;4959229;28;7892;-67
2023/01/24 00:10:00;;;;;;;;;;;;;;;25.02;37.34;94980.44;4937038;28;7186;-67
2023/01/24 00:12:28;;;;;;;;;;;;;;;25.02;37.37;94983.19;4952416;28;7246;-67
2023/01/24 00:15:10;;;;;;;;;;;;;;;25.04;37.26;94999.19;4951864;28;9281;-67
2023/01/24 00:18:01;;;;;;;;;;;;;;;25.03;36.85;94994.97;4936029;29;8823;-67
2023/01/24 00:20:27;;;;;;;;;;;;;;;25.00;36.95;94985.69;4954058;29;8750;-67
2023/01/24 00:22:53;;;;;;;;;;;;;;;25.00;36.80;94987.69;4937151;29;9366;-67
2023/01/24 00:25:21;;;;;;;;;;;;;;;25.03;37.50;94995.72;4947692;29;8238;-67
2023/01/24 00:27:49;;;;;;;;;;;;;;;25.02;36.87;94990.69;4950373;28;9045;-67
2023/01/24 00:30:16;;;;;;;;;;;;;;;25.01;37.79;94989.94;4947480;28;7124;-67
2023/01/24 00:32:44;;;;;;;;;;;;;;;25.03;36.89;95003.22;4947506;29;7198;-67
2023/01/24 00:35:13;;;;;;;;;;;;;;;25.01;37.64;94989.94;4938909;29;9487;-67
2023/01/24 00:37:40;;;;;;;;;;;;;;;25.01;37.06;95000.94;4930866;29;9083;-67
2023/01/24 00:40:08;;;;;;;;;;;;;;;25.01;37.05;94995.44;4946432;28;7215;-67
2023/01/24 00:42:40;;;;;;;;;;;;;;;25.02;37.40;94996.19;4951102;29;7284;-67
2023/01/24 00:45:11;;;;;;;;;;;;;;;25.01;37.66;95000.94;4933326;29;8801;-67
2023/01/24 00:47:38;;;;;;;;;;;;;;;25.03;37.05;94992.22;4946885;29;7300;-67
2023/01/24 00:50:10;;;;;;;;;;;;;;;25.03;37.05;95000.47;4930403;29;8993;-67
2023/01/24 00:52:36;;;;;;;;;;;;;;;25.04;37.65;94999.97;4952308;28;9165;-67
2023/01/24 00:55:05;;;;;;;;;;;;;;;25.04;37.21;95002.72;4946818;29;8186;-67
2023/01/24 00:57:31;;;;;;;;;;;;;;;25.03;37.49;95000.47;4948384;28;9492;-67
2023/01/24 00:59:57;;;;;;;;;;;;;;;25.04;37.36;94999.97;4948297;29;9200;-67
2023/01/24 01:02:25;;;;;;;;;;;;;;;25.04;37.04;95001.97;4937610;29;7779;-68
2023/01/24 01:04:53;;;;;;;;;;;;;;;25.04;37.44;95010.97;4936023;29;8698;-67
2023/01/24 01:07:20;;;;;;;;;;;;;;;25.05;37.33;95009.75;4946296;28;9421;-67
2023/01/24 01:09:47;;;;;;;;;;;;;;;25.05;37.00;95006.22;4946123;28;7513;-67
2023/01/24 01:12:13;;;;;;;;;;;;;;;25.05;36.47;95022.75;4954225;28;8019;-67
2023/01/24 01:14:48;;;;;;;;;;;;;;;25.05;36.92;95008.97;4949905;28;8693;-67
2023/01/24 01:17:15;;;;;;;;;;;;;;;25.04;37.38;95010.22;4953762;29;7027;-66
2023/01/24 01:19:45;;;;;;;;;;;;;;;25.04;36.82;95008.22;4948419;28;9031;-67
2023/01/24 01:22:19;;;;;;;;;;;;;;;25.05;37.82;95011.72;4949620;29;8691;-67
2023/01/24 01:24:45;;;;;;;;;;;;;;;25.04;37.18;95015.72;4933828;28;8207;-67
2023/01/24 01:27:38;;;;;;;;;;;;;;;25.03;37.16;95016.97;4948876;28;8734;-57
2023/01/24 01:30:17;;;;;;;;;;;;;;;25.02;37.62;95012.69;4921909;29;8986;-57
2023/01/24 01:32:58;;;;;;;;;;;;;;;25.03;37.34;95022.47;4930057;29;8921;-57
2023/01/24 01:35:58;;;;;;;;;;;;;;;25.02;37.53;95038.25;4927319;28;9002;-57
2023/01/24 01:38:35;;;;;;;;;;;;;;;25.02;37.67;95035.47;4861250;29;9026;-67
2023/01/24 01:41:01;;;;;;;;;;;;;;;25.03;37.41;95042.50;4851911;29;7244;-67
2023/01/24 01:44:37;;;;;;;;;;;;;;;25.04;36.80;95046.00;4848091;29;7470;-67
2023/01/24 01:46:37;;;;;;;;;;;;;;;25.05;37.11;95047.50;4855067;29;7207;-67
2023/01/24 01:49:08;;;;;;;;;;;;;;;25.04;36.93;95040.50;4860530;29;8338;-67
2023/01/24 01:52:04;;;;;;;;;;;;;;;25.03;36.88;95036.25;4858133;29;7016;-67
2023/01/24 01:54:44;;;;;;;;;;;;;;;25.03;37.60;95041.75;4815580;29;9208;-67
2023/01/24 01:57:24;;;;;;;;;;;;;;;25.03;37.09;95042.50;4820863;29;9190;-67
2023/01/24 02:03:38;;;;;;;;;;;;;;;25.03;36.62;95044.50;4819168;29;9133;-67
2023/01/24 02:06:25;;;;;;;;;;;;;;;25.03;37.55;95039.75;4822960;29;7028;-67
2023/01/24 02:08:53;;;;;;;;;;;;;;;25.01;37.02;95044.25;4764197;29;9110;-67
2023/01/24 02:11:38;;;;;;;;;;;;;;;25.02;37.50;95052.00;4792164;29;7024;-67
2023/01/24 02:17:02;;;;;;;;;;;;;;;25.03;37.53;95052.75;4804344;29;9184;-67
2023/01/24 02:20:11;;;;;;;;;;;;;;;25.04;36.84;95065.25;4805100;29;9178;-67
2023/01/24 02:22:46;;;;;;;;;;;;;;;25.02;37.38;95051.22;4792177;29;7357;-67
2023/01/24 02:28:19;;;;;;;;;;;;;;;25.01;36.87;95047.72;4801470;29;9007;-67
2023/01/24 02:31:04;;;;;;;;;;;;;;;25.03;37.29;95041.75;4826742;29;9448;-67
2023/01/24 02:34:19;;;;;;;;;;;;;;;25.04;36.77;95054.25;4884513;29;7363;-67
2023/01/24 02:36:52;;;;;;;;;;;;;;;25.02;37.21;95045.72;4859160;29;7029;-67
2023/01/24 02:39:45;;;;;;;;;;;;;;;25.03;36.86;95050.75;4874934;29;8969;-67
2023/01/24 02:42:16;;;;;;;;;;;;;;;25.03;37.23;95041.75;4901016;29;9398;-67
2023/01/24 02:45:20;;;;;;;;;;;;;;;25.02;37.18;95049.25;4898892;29;7012;-67
2023/01/24 02:47:58;;;;;;;;;;;;;;;25.01;37.28;95049.75;4915894;29;7057;-67
2023/01/24 02:53:28;;;;;;;;;;;;;;;25.04;37.00;95054.25;4915500;29;9029;-67
2023/01/24 02:53:30;;;;;;;;;;;;;;;25.03;36.73;95053.53;4916078;29;9050;-67
2023/01/24 02:59:49;;;;;;;;;;;;;;;25.04;36.71;95059.75;4910583;29;7487;-67
2023/01/24 03:02:15;;;;;;;;;;;;;;;25.03;37.27;95072.03;4910138;29;7249;-67
2023/01/24 03:04:41;;;;;;;;;;;;;;;25.03;36.80;95077.53;4892752;29;9080;-67
2023/01/24 03:07:09;;;;;;;;;;;;;;;25.04;37.04;95070.75;4916031;29;7275;-67
2023/01/24 03:10:02;;;;;;;;;;;;;;;25.04;37.67;95065.25;4915160;29;9199;-67
2023/01/24 03:36:31;;;;;;;;;;;;;;;25.01;37.75;95074.50;4914641;29;7019;-67
2023/01/24 03:41:55;;;;;;;;;;;;;;;25.01;37.03;95080.75;4947157;28;8305;-67
2023/01/24 03:44:23;;;;;;;;;;;;;;;25.02;36.70;95081.50;4948818;28;9344;-67
2023/01/24 03:46:49;;;;;;;;;;;;;;;25.03;37.37;95075.53;4933248;28;7254;-57
2023/01/24 03:49:19;;;;;;;;;;;;;;;25.03;37.19;95064.53;4947013;28;7404;-57
2023/01/24 03:54:29;;;;;;;;;;;;;;;25.03;37.34;95083.03;4947309;28;9031;-57
2023/01/24 03:56:56;;;;;;;;;;;;;;;25.03;36.61;95086.53;4942494;28;7055;-57
2023/01/24 03:59:24;;;;;;;;;;;;;;;25.02;37.03;95089.75;4953413;28;8934;-57
2023/01/24 04:01:50;;;;;;;;;;;;;;;25.05;37.09;95088.81;4932696;29;9222;-58
2023/01/24 04:04:16;;;;;;;;;;;;;;;25.03;37.28;95097.56;4930657;28;7288;-57
2023/01/24 04:06:44;;;;;;;;;;;;;;;25.02;36.82;95100.78;4934382;28;7189;-57
2023/01/24 04:09:10;;;;;;;;;;;;;;;25.03;37.12;95108.56;4947234;28;8827;-58
2023/01/24 04:11:36;;;;;;;;;;;;;;;25.04;37.00;95098.28;4958480;28;7268;-57
2023/01/24 04:14:14;;;;;;;;;;;;;;;25.04;37.54;95104.56;4949956;28;9394;-57
2023/01/24 04:16:59;;;;;;;;;;;;;;;25.04;37.34;95103.78;4932073;28;7223;-57
2023/01/24 04:19:50;;;;;;;;;;;;;;;25.04;37.37;95109.28;4936778;28;7134;-57
2023/01/24 04:22:16;;;;;;;;;;;;;;;25.03;37.34;95103.06;4937919;29;8303;-57
2023/01/24 04:24:43;;;;;;;;;;;;;;;25.02;36.74;95098.78;4950473;28;7396;-57
2023/01/24 04:27:10;;;;;;;;;;;;;;;25.04;37.56;95101.03;4929144;29;8644;-57
2023/01/24 04:29:38;;;;;;;;;;;;;;;25.02;36.63;95104.28;4947644;29;9146;-57
2023/01/24 04:32:04;;;;;;;;;;;;;;;25.02;36.83;95106.28;4948462;28;7058;-57
2023/01/24 04:34:30;;;;;;;;;;;;;;;25.04;36.65;95107.31;4950007;28;7268;-57
2023/01/24 04:36:56;;;;;;;;;;;;;;;25.05;37.28;95111.56;4949566;28;8689;-57
2023/01/24 04:39:22;;;;;;;;;;;;;;;25.04;36.84;95121.06;4949605;29;7077;-57
2023/01/24 04:42:08;;;;;;;;;;;;;;;25.06;36.89;95120.56;4956793;28;9086;-57
2023/01/24 04:44:38;;;;;;;;;;;;;;;25.04;36.81;95121.06;4946022;28;9110;-57
2023/01/24 04:47:04;;;;;;;;;;;;;;;25.02;37.41;95115.31;4934005;29;9066;-57
2023/01/24 04:49:30;;;;;;;;;;;;;;;25.05;37.10;95121.81;4936234;29;8193;-57
2023/01/24 04:51:56;;;;;;;;;;;;;;;25.04;37.42;95114.81;4937697;29;8897;-57
2023/01/24 04:54:24;;;;;;;;;;;;;;;25.04;37.06;95114.81;4955814;28;8844;-57
2023/01/24 04:57:16;;;;;;;;;;;;;;;25.04;37.57;95118.31;4938085;29;9356;-58
2023/01/24 04:59:53;;;;;;;;;;;;;;;25.05;37.19;95111.56;4881992;29;7166;-57
2023/01/24 05:02:19;;;;;;;;;;;;;;;25.05;36.88;95111.56;4882672;29;7246;-57
2023/01/24 05:04:45;;;;;;;;;;;;;;;25.05;36.95;95114.34;4867262;29;9848;-57
2023/01/24 05:07:11;;;;;;;;;;;;;;;25.05;36.89;95119.06;4896416;29;7433;-57
2023/01/24 05:09:46;;;;;;;;;;;;;;;25.05;36.85;95119.06;4894180;29;7049;-57
2023/01/24 05:12:32;;;;;;;;;;;;;;;25.05;37.36;95116.31;4886952;29;7303;-57
2023/01/24 05:15:25;;;;;;;;;;;;;;;25.06;36.62;95124.09;4879477;29;10041;-57
2023/01/24 05:17:53;;;;;;;;;;;;;;;25.06;37.53;95126.06;4881725;29;8796;-57
2023/01/24 05:20:30;;;;;;;;;;;;;;;25.05;37.10;95127.34;4882695;29;8807;-57
2023/01/24 05:23:14;;;;;;;;;;;;;;;25.06;36.59;95128.81;4889079;29;9000;-57
2023/01/24 05:25:58;;;;;;;;;;;;;;;25.05;37.27;95130.84;4882833;29;7062;-57
2023/01/24 05:28:33;;;;;;;;;;;;;;;25.06;36.57;95132.34;4882030;29;7524;-57
2023/01/24 05:31:00;;;;;;;;;;;;;;;25.06;37.17;95145.34;4873392;29;9329;-58
2023/01/24 05:33:55;;;;;;;;;;;;;;;25.06;37.56;95139.84;4880571;29;7002;-57
2023/01/24 05:36:55;;;;;;;;;;;;;;;25.06;37.42;95150.84;4884566;29;7119;-57
2023/01/24 05:39:36;;;;;;;;;;;;;;;25.05;36.93;95149.34;4886948;29;9551;-57
2023/01/24 05:42:02;;;;;;;;;;;;;;;25.06;36.77;95145.34;4890221;29;9119;-57
2023/01/24 05:44:30;;;;;;;;;;;;;;;25.06;37.18;95153.59;4898931;29;9116;-57
2023/01/24 05:46:56;;;;;;;;;;;;;;;25.02;37.04;95156.59;4909466;29;7523;-57
2023/01/24 05:49:22;;;;;;;;;;;;;;;25.04;37.44;95159.59;4898587;29;7389;-57
2023/01/24 05:51:48;;;;;;;;;;;;;;;25.05;36.91;95157.59;4878421;29;7011;-57
2023/01/24 05:54:17;;;;;;;;;;;;;;;25.06;37.01;95164.59;4899383;29;8807;-57
2023/01/24 05:56:42;;;;;;;;;;;;;;;25.04;36.74;95173.34;4874760;29;9032;-57
2023/01/24 05:59:10;;;;;;;;;;;;;;;25.08;37.36;95173.13;4877161;29;8464;-57
2023/01/24 06:01:46;;;;;;;;;;;;;;;25.07;37.07;95185.41;4880510;29;7325;-57
2023/01/24 06:04:12;;;;;;;;;;;;;;;25.05;37.50;95188.66;4885254;29;8806;-57
2023/01/24 06:06:41;;;;;;;;;;;;;;;25.04;37.33;95184.38;4881447;29;9399;-58
2023/01/24 06:09:21;;;;;;;;;;;;;;;25.05;37.32;95183.13;4898376;29;7285;-57
2023/01/24 06:11:49;;;;;;;;;;;;;;;25.07;37.23;95197.16;4892255;29;7269;-57
2023/01/24 06:14:19;;;;;;;;;;;;;;;25.09;38.17;95183.66;4915694;28;7090;-57
2023/01/24 06:16:49;;;;;;;;;;;;;;;25.17;37.59;95190.22;4949130;28;8736;-57
2023/01/24 06:19:19;;;;;;;;;;;;;;;25.14;37.33;95196.69;4950764;28;7577;-58
2023/01/24 06:21:55;;;;;;;;;;;;;;;25.13;36.84;95191.69;4952492;28;8296;-57
2023/01/24 06:24:31;;;;;;;;;;;;;;;25.15;37.27;95186.47;4953203;28;8892;-57
2023/01/24 06:26:59;;;;;;;;;;;;;;;25.19;38.26;95195.25;4953130;28;7259;-57
2023/01/24 06:29:26;;;;;;;;;;;;;;;25.18;38.08;95196.50;4953441;28;8898;-57
2023/01/24 06:32:40;;;;;;;;;;;;;;;25.16;37.36;95193.47;4955545;28;8217;-65
2023/01/24 06:35:56;;;;;;;;;;;;;;;25.15;37.88;95208.47;4877571;29;7137;-65
2023/01/24 06:38:24;;;;;;;;;;;;;;;25.15;37.92;95206.47;4873717;29;7274;-65
2023/01/24 06:41:02;;;;;;;;;;;;;;;25.14;37.28;95202.22;4881880;29;8700;-66
2023/01/24 06:43:38;;;;;;;;;;;;;;;25.18;37.61;95211.03;4876336;29;7350;-65
2023/01/24 06:46:04;;;;;;;;;;;;;;;25.21;36.28;95209.28;4876012;29;9143;-65
2023/01/24 06:48:32;;;;;;;;;;;;;;;25.17;37.50;95212.25;4887677;29;7459;-65
2023/01/24 06:51:02;;;;;;;;;;;;;;;25.16;36.49;95218.25;4874878;29;9020;-64
2023/01/24 06:53:28;;;;;;;;;;;;;;;25.13;37.28;95227.47;4885369;29;7517;-65
2023/01/24 06:56:28;;;;;;;;;;;;;;;25.14;37.20;95237.25;4875339;29;7157;-64
2023/01/24 06:58:56;;;;;;;;;;;;;;;25.12;36.98;95234.25;4881277;29;7254;-65
2023/01/24 07:01:22;;;;;;;;;;;;;;;25.10;37.17;95236.72;4888630;29;7263;-64
2023/01/24 07:03:48;;;;;;;;;;;;;;;25.08;37.79;95242.72;4891518;29;8761;-64
2023/01/24 07:06:15;;;;;;;;;;;;;;;25.06;36.85;95250.69;4895051;29;7424;-64
2023/01/24 07:09:16;;;;;;;;;;;;;;;25.06;36.85;95256.19;4877860;29;8996;-64
2023/01/24 07:11:42;;;;;;;;;;;;;;;25.05;37.68;95254.69;4938805;28;7035;-65
2023/01/24 07:14:09;;;;;;;;;;;;;;;25.06;37.81;95249.94;4952350;28;7278;-65
2023/01/24 07:16:41;;;;;;;;;;;;;;;25.04;37.04;95255.94;4954005;28;7046;-65
2023/01/24 07:19:45;;;;;;;;;;;;;;;25.06;37.93;95263.69;4938873;28;9339;-65
2023/01/24 07:22:28;;;;;;;;;;;;;;;25.05;38.01;95265.72;4870680;29;7245;-65
2023/01/24 07:25:01;;;;;;;;;;;;;;;25.05;37.48;95268.47;4872051;29;7475;-66
2023/01/24 07:27:29;;;;;;;;;;;;;;;25.05;37.74;95273.22;4882643;29;7096;-66
2023/01/24 07:30:32;;;;;;;;;;;;;;;25.05;36.60;95268.47;4879902;29;9361;-66
2023/01/24 07:33:13;;;;;;;;;;;;;;;25.03;37.20;95279.22;4873750;29;7263;-66
2023/01/24 07:35:58;;;;;;;;;;;;;;;25.02;37.71;95271.41;4880180;29;8890;-65
2023/01/24 07:38:43;;;;;;;;;;;;;;;25.02;38.00;95285.19;4887853;29;7199;-65
2023/01/24 07:41:10;;;;;;;;;;;;;;;25.03;38.08;95286.69;4895923;29;7237;-57
2023/01/24 07:43:37;;;;;;;;;;;;;;;25.04;38.32;95294.47;4894519;29;8718;-57
2023/01/24 07:46:19;;;;;;;;;;;;;;;25.05;37.85;95290.50;4894955;29;9050;-56
2023/01/24 07:48:47;;;;;;;;;;;;;;;25.07;37.63;95295.50;4891548;29;7591;-57
2023/01/24 07:51:23;;;;;;;;;;;;;;;25.07;37.97;95292.75;4871555;29;9371;-57
2023/01/24 07:53:50;;;;;;;;;;;;;;;25.08;37.47;95299.75;4892205;29;7100;-57
2023/01/24 07:56:22;;;;;;;;;;;;;;;25.06;37.60;95299.47;4911168;28;9169;-57
2023/01/24 07:58:55;;;;;;;;;;;;;;;25.04;37.61;95290.94;4957018;28;8705;-57
2023/01/24 08:01:26;;;;;;;;;;;;;;;25.07;38.45;95301.00;4934142;28;8967;-62
2023/01/24 08:03:57;;;;;;;;;;;;;;;25.08;37.84;95302.50;4950265;28;7015;-62
2023/01/24 08:06:26;;;;;;;;;;;;;;;25.04;38.08;95294.47;4952019;28;7019;-62
2023/01/24 08:08:54;;;;;;;;;;;;;;;25.09;37.68;95312.28;4935345;28;7251;-62
2023/01/24 08:11:25;;;;;;;;;;;;;;;25.09;37.71;95309.53;4932230;28;7303;-62
2023/01/24 08:13:54;;;;;;;;;;;;;;;25.11;38.38;95307.03;4948525;28;9010;-62
2023/01/24 08:16:25;;;;;;;;;;;;;;;25.11;37.44;95312.56;4949286;28;9056;-62
2023/01/24 08:18:52;;;;;;;;;;;;;;;25.10;38.26;95317.28;4945644;28;7047;-62
2023/01/24 08:21:18;;;;;;;;;;;;;;;25.10;38.02;95309.03;4944970;28;8993;-62
2023/01/24 08:24:14;;;;;;;;;;;;;;;25.10;38.31;95324.81;4936419;28;7442;-62
2023/01/24 08:26:41;;;;;;;;;;;;;;;25.08;37.57;95321.75;4954982;28;9123;-62
2023/01/24 08:29:10;;;;;;;;;;;;;;;25.08;37.84;95325.28;4953863;28;7380;-62
2023/01/24 08:31:38;;;;;;;;;;;;;;;25.09;38.59;95331.56;4947982;28;8925;-62
2023/01/24 08:34:06;;;;;;;;;;;;;;;25.11;38.19;95329.06;4932144;28;7951;-62
2023/01/24 08:36:37;;;;;;;;;;;;;;;25.09;38.21;95337.81;4966590;28;7038;-62
2023/01/24 08:39:04;;;;;;;;;;;;;;;25.11;37.69;95335.34;4933627;28;8745;-62
2023/01/24 08:41:32;;;;;;;;;;;;;;;25.08;38.06;95330.03;4951352;28;7267;-62
2023/01/24 08:43:58;;;;;;;;;;;;;;;25.12;38.44;95344.34;4937165;28;9556;-62
2023/01/24 08:46:26;;;;;;;;;;;;;;;25.11;37.94;95340.84;4935159;28;8706;-62
2023/01/24 08:48:52;;;;;;;;;;;;;;;25.11;38.35;95340.06;4948462;28;8939;-62
2023/01/24 08:51:22;;;;;;;;;;;;;;;25.12;38.41;95347.84;4940993;28;7327;-62
2023/01/24 08:53:52;;;;;;;;;;;;;;;25.12;38.26;95338.84;4943915;28;7280;-62
2023/01/24 08:56:18;;;;;;;;;;;;;;;25.11;38.40;95346.34;4937950;28;9215;-62
2023/01/24 08:58:44;;;;;;;;;;;;;;;25.14;38.43;95350.88;4935670;28;9058;-62
2023/01/24 09:01:11;;;;;;;;;;;;;;;25.16;37.62;95353.16;4962976;28;7256;-62
2023/01/24 09:03:37;;;;;;;;;;;;;;;25.16;38.27;95358.66;4957330;28;7300;-62
2023/01/24 09:06:04;;;;;;;;;;;;;;;25.18;38.12;95356.19;4940881;28;7430;-62
2023/01/24 09:08:33;;;;;;;;;;;;;;;25.19;37.71;95360.44;4954556;28;10084;-62
2023/01/24 09:11:16;;;;;;;;;;;;;;;25.21;37.92;95364.22;4940826;28;7734;-62
2023/01/24 09:13:49;;;;;;;;;;;;;;;25.22;37.83;95362.97;4950953;28;9107;-62
2023/01/24 09:16:15;;;;;;;;;;;;;;;25.22;37.71;95357.47;4953453;28;7257;-62
2023/01/24 09:18:41;;;;;;;;;;;;;;;25.22;38.13;95359.47;4936914;28;7161;-62
2023/01/24 09:21:07;;;;;;;;;;;;;;;25.24;37.61;95366.00;4965449;28;8985;-57
2023/01/24 09:23:33;;;;;;;;;;;;;;;25.24;37.89;95365.25;4950879;28;9250;-57
2023/01/24 09:26:02;;;;;;;;;;;;;;;25.25;38.22;95364.75;4953923;28;7243;-57
2023/01/24 09:28:28;;;;;;;;;;;;;;;25.25;38.19;95372.28;4953212;28;9097;-57
2023/01/24 09:30:53;;;;;;;;;;;;;;;25.25;38.05;95370.25;4937484;28;7843;-57
2023/01/24 09:33:22;;;;;;;;;;;;;;;25.25;37.60;95375.75;4958776;28;10068;-57
2023/01/24 09:35:53;;;;;;;;;;;;;;;25.26;38.56;95374.53;4938065;28;7221;-56
2023/01/24 09:38:22;;;;;;;;;;;;;;;25.24;37.65;95371.50;4953735;28;9557;-56
2023/01/24 09:41:36;;;;;;;;;;;;;;;25.27;37.73;95375.31;4937997;28;7282;-57
2023/01/24 09:44:34;;;;;;;;;;;;;;;25.27;38.20;95372.53;4952605;28;7302;-62
2023/01/24 09:47:19;;;;;;;;;;;;;;;25.30;38.47;95369.56;4949443;28;7268;-62
2023/01/24 09:50:03;;;;;;;;;;;;;;;25.30;37.81;95377.81;4953776;28;9112;-62
2023/01/24 09:52:30;;;;;;;;;;;;;;;25.30;37.98;95375.06;4958908;28;7884;-62
2023/01/24 09:55:04;;;;;;;;;;;;;;;25.30;38.29;95377.06;4950336;28;8252;-62
2023/01/24 09:58:11;;;;;;;;;;;;;;;25.29;38.50;95375.56;4952562;28;7027;-62
2023/01/24 10:00:38;;;;;;;;;;;;;;;25.29;38.46;95381.81;4895138;29;7041;-62
2023/01/24 10:03:18;;;;;;;;;;;;;;;25.31;38.14;95375.84;4912888;29;7184;-62
2023/01/24 10:05:50;;;;;;;;;;;;;;;25.32;38.01;95385.59;4913606;29;8983;-62
2023/01/24 10:08:16;;;;;;;;;;;;;;;25.32;38.35;95378.09;4908819;29;7023;-62
2023/01/24 10:10:55;;;;;;;;;;;;;;;25.32;37.76;95374.59;4890832;29;9039;-62
2023/01/24 10:13:42;;;;;;;;;;;;;;;25.34;38.37;95375.59;4911243;29;7342;-62
2023/01/24 10:16:47;;;;;;;;;;;;;;;25.34;37.68;95372.09;4895384;29;7126;-62
2023/01/24 10:19:24;;;;;;;;;;;;;;;25.34;37.71;95374.84;4862136;29;9717;-62
2023/01/24 10:22:15;;;;;;;;;;;;;;;25.35;37.52;95382.66;4874898;29;7538;-62
2023/01/24 10:25:26;;;;;;;;;;;;;;;25.37;37.81;95382.16;4856764;29;7303;-62
2023/01/24 10:28:05;;;;;;;;;;;;;;;25.38;37.88;95373.41;4831286;29;8960;-66
2023/01/24 10:30:40;;;;;;;;;;;;;;;25.39;37.57;95365.91;4822670;29;9088;-66
2023/01/24 10:33:30;;;;;;;;;;;;;;;25.41;38.34;95366.16;4837237;29;9356;-66
2023/01/24 10:36:22;;;;;;;;;;;;;;;25.42;37.76;95365.69;4824670;29;7079;-65
2023/01/24 10:38:50;;;;;;;;;;;;;;;25.39;38.03;95361.16;4833572;29;10241;-66
2023/01/24 10:41:30;;;;;;;;;;;;;;;25.42;37.60;95370.47;4836409;29;8298;-65
2023/01/24 10:44:30;;;;;;;;;;;;;;;25.45;38.30;95366.72;4845651;29;9173;-66
2023/01/24 10:47:34;;;;;;;;;;;;;;;25.46;38.20;95361.97;4791022;29;9165;-66
2023/01/24 10:50:23;;;;;;;;;;;;;;;25.46;37.14;95353.72;4774126;29;7250;-66
2023/01/24 10:52:52;;;;;;;;;;;;;;;25.46;37.73;95353.72;4792097;29;7078;-57
2023/01/24 10:55:37;;;;;;;;;;;;;;;25.55;36.79;95353.56;4785613;29;8937;-57
2023/01/24 10:58:35;;;;;;;;;;;;;;;25.53;37.30;95359.56;4808943;29;7042;-57
2023/01/24 11:01:48;;;;;;;;;;;;;;;25.51;37.58;95355.78;4790350;29;6933;-57
2023/01/24 11:04:20;;;;;;;;;;;;;;;25.52;37.01;95352.53;4778069;29;9349;-57
2023/01/24 11:06:49;;;;;;;;;;;;;;;25.51;36.70;95356.53;4788778;29;8119;-57
2023/01/24 11:09:43;;;;;;;;;;;;;;;25.53;37.48;95351.31;4785110;30;8747;-57
2023/01/24 11:12:23;;;;;;;;;;;;;;;25.52;37.68;95349.00;4781044;29;7551;-57
2023/01/24 11:15:02;;;;;;;;;;;;;;;25.52;36.94;95352.53;4780105;29;9006;-57
2023/01/24 11:17:36;;;;;;;;;;;;;;;25.52;37.09;95347.03;4796133;29;7289;-57
2023/01/24 11:20:42;;;;;;;;;;;;;;;25.54;36.81;95341.78;4785045;29;8263;-57
2023/01/24 11:23:21;;;;;;;;;;;;;;;25.55;36.95;95342.53;4845476;29;8136;-57
2023/01/24 11:26:20;;;;;;;;;;;;;;;25.59;36.81;95346.59;4867010;29;9091;-57
2023/01/24 11:29:16;;;;;;;;;;;;;;;25.63;36.82;95347.13;4882626;29;8714;-57
2023/01/24 11:31:51;;;;;;;;;;;;;;;25.65;37.58;95347.38;4886316;29;7255;-58
2023/01/24 11:35:12;;;;;;;;;;;;;;;25.65;37.77;95343.88;4870245;29;8658;-57
2023/01/24 11:38:24;;;;;;;;;;;;;;;25.63;37.22;95341.59;4868330;29;7321;-57
2023/01/24 11:41:21;;;;;;;;;;;;;;;25.62;37.05;95334.56;4926685;28;7059;-57
2023/01/24 11:44:08;;;;;;;;;;;;;;;25.64;37.86;95343.13;4952106;28;7357;-57
2023/01/24 11:50:36;;;;;;;;;;;;;;;25.67;36.94;95344.91;4913286;29;7174;-57
2023/01/24 11:53:23;;;;;;;;;;;;;;;25.68;37.53;95349.19;4910851;29;7248;-57
2023/01/24 11:59:43;;;;;;;;;;;;;;;25.73;37.85;95322.91;4913031;29;9139;-57
2023/01/24 12:02:28;;;;;;;;;;;;;;;25.75;36.87;95315.66;4897621;29;7480;-57
2023/01/24 12:04:59;;;;;;;;;;;;;;;25.78;37.13;95308.41;4903463;29;7267;-57
2023/01/24 12:08:02;;;;;;;;;;;;;;;25.81;37.65;95308.19;4914365;29;7444;-57
2023/01/24 12:10:42;;;;;;;;;;;;;;;25.82;37.36;95315.19;4891975;29;9473;-57
2023/01/24 12:13:48;;;;;;;;;;;;;;;25.82;37.28;95312.44;4905184;29;7701;-57
2023/01/24 12:16:59;;;;;;;;;;;;;;;25.85;37.70;95308.72;4881994;29;7367;-57
2023/01/24 12:20:11;;;;;;;;;;;;;;;25.90;36.85;95310.00;4894636;29;8525;-57
2023/01/24 12:23:20;;;;;;;;;;;;;;;25.92;37.54;95307.50;4852844;29;7062;-57
2023/01/24 12:25:52;;;;;;;;;;;;;;;25.91;36.85;95306.75;4799772;29;9286;-57
2023/01/24 12:28:45;;;;;;;;;;;;;;;25.96;37.40;95313.56;4791451;29;9085;-57
2023/01/24 12:31:26;;;;;;;;;;;;;;;25.98;37.13;95306.31;4802796;29;7305;-57
2023/01/24 12:34:06;;;;;;;;;;;;;;;25.95;37.79;95299.00;4798346;29;9057;-57
2023/01/24 12:36:43;;;;;;;;;;;;;;;25.97;37.51;95306.78;4817276;29;8280;-57
2023/01/24 12:39:20;;;;;;;;;;;;;;;25.96;37.78;95308.03;4814325;29;9064;-57
2023/01/24 12:42:01;;;;;;;;;;;;;;;25.97;37.76;95304.78;4801216;29;7276;-57
2023/01/24 12:44:48;;;;;;;;;;;;;;;25.97;37.13;95310.28;4817736;29;7467;-57
2023/01/24 12:47:20;;;;;;;;;;;;;;;25.97;37.39;95304.78;4800573;29;8599;-57
2023/01/24 12:50:18;;;;;;;;;;;;;;;25.98;37.27;95302.78;4798717;29;7055;-57
2023/01/24 12:52:50;;;;;;;;;;;;;;;25.97;37.28;95306.78;4820562;29;9355;-57
2023/01/24 12:55:18;;;;;;;;;;;;;;;25.94;37.31;95305.78;4858484;29;7231;-57
2023/01/24 12:58:10;;;;;;;;;;;;;;;25.93;37.54;95318.03;4835186;29;9069;-67
2023/01/24 13:00:56;;;;;;;;;;;;;;;25.94;37.55;95316.03;4858947;29;8775;-66
2023/01/24 13:03:41;;;;;;;;;;;;;;;25.92;36.83;95313.78;4951479;29;7868;-67
2023/01/24 13:06:27;;;;;;;;;;;;;;;25.93;36.85;95315.28;4952636;28;7254;-68
2023/01/24 13:09:32;;;;;;;;;;;;;;;25.92;37.01;95316.53;4943629;29;7350;-67
2023/01/24 13:12:13;;;;;;;;;;;;;;;25.92;36.37;95305.53;4951301;29;7063;-67
2023/01/24 13:15:09;;;;;;;;;;;;;;;25.93;36.28;95309.78;4949036;29;9136;-67
2023/01/24 13:17:45;;;;;;;;;;;;;;;25.94;36.67;95311.28;4933797;29;8952;-67
2023/01/24 13:20:52;;;;;;;;;;;;;;;25.97;37.08;95310.28;4934478;28;8752;-67
2023/01/24 13:23:34;;;;;;;;;;;;;;;26.00;37.22;95317.59;4950360;28;9392;-67
2023/01/24 13:26:22;;;;;;;;;;;;;;;25.98;37.05;95311.81;4935593;28;9016;-67
2023/01/24 13:28:57;;;;;;;;;;;;;;;25.96;37.52;95314.31;4950484;28;9172;-67
2023/01/24 13:31:34;;;;;;;;;;;;;;;25.96;36.65;95308.03;4944941;28;7286;-67
2023/01/24 13:34:10;;;;;;;;;;;;;;;25.98;37.43;95311.06;4949885;28;9051;-66
2023/01/24 13:36:48;;;;;;;;;;;;;;;25.97;37.16;95309.53;4948890;28;7325;-66
2023/01/24 13:39:42;;;;;;;;;;;;;;;26.01;37.44;95316.31;4934004;28;7289;-67
2023/01/24 13:42:17;;;;;;;;;;;;;;;26.02;36.40;95319.84;4947761;28;7042;-67
2023/01/24 13:44:43;;;;;;;;;;;;;;;25.92;33.09;95313.78;4946457;28;8760;-66
2023/01/24 13:47:09;;;;;;;;;;;;;;;25.65;28.13;95339.13;4946764;28;9341;-67
2023/01/24 13:49:39;;;;;;;;;;;;;;;25.49;26.88;95322.47;4949043;28;9164;-67
2023/01/24 13:52:43;;;;;;;;;;;;;;;25.41;25.46;95333.13;4953238;28;7331;-67
2023/01/24 13:55:57;;;;;;;;;;;;;;;25.41;26.66;95333.13;4952380;28;9132;-66
2023/01/24 13:58:24;;;;;;;;;;;;;;;25.48;26.51;95343.72;4934378;28;7372;-67
2023/01/24 14:00:57;;;;;;;;;;;;;;;25.55;26.55;95335.03;4928324;28;7263;-66
2023/01/24 14:03:37;;;;;;;;;;;;;;;25.64;26.99;95326.59;4947293;28;9424;-66
2023/01/24 14:06:05;;;;;;;;;;;;;;;25.66;26.07;95328.84;4937041;28;8677;-66
2023/01/24 14:08:48;;;;;;;;;;;;;;;25.64;26.41;95332.13;4929557;28;7121;-67
2023/01/24 14:11:21;;;;;;;;;;;;;;;25.65;27.16;95333.59;4932183;28;8604;-67
2023/01/24 14:13:54;;;;;;;;;;;;;;;25.65;27.38;95341.09;4946766;28;7821;-66
2023/01/24 14:16:26;;;;;;;;;;;;;;;25.66;27.65;95340.66;4954134;28;7826;-67
2023/01/24 14:18:59;;;;;;;;;;;;;;;25.68;28.11;95331.88;4954884;28;7054;-67
2023/01/24 14:21:50;;;;;;;;;;;;;;;25.70;27.92;95334.91;4951842;28;8779;-67
2023/01/24 14:24:26;;;;;;;;;;;;;;;25.70;28.72;95341.16;4950801;28;7113;-67
2023/01/24 14:27:19;;;;;;;;;;;;;;;25.72;29.13;95341.44;4939266;28;7911;-67
2023/01/24 14:30:54;;;;;;;;;;;;;;;25.74;29.39;95341.69;4947605;28;7066;-67
2023/01/24 14:33:53;;;;;;;;;;;;;;;25.77;28.95;95349.00;4896502;29;7039;-67
2023/01/24 14:37:03;;;;;;;;;;;;;;;25.86;28.87;95354.31;4890133;29;8916;-62
2023/01/24 14:39:29;;;;;;;;;;;;;;;25.88;29.29;95351.09;4865122;29;9276;-62
2023/01/24 14:42:02;;;;;;;;;;;;;;;25.91;30.12;95359.13;4853705;29;9347;-62